createdAt,value
2018-06-16T00:01:32.984Z,10.50
2018-06-16T00:04:07.677Z,9.57
2018-06-16T00:06:42.600Z,10.80
2018-06-16T00:09:17.741Z,10.30
2018-06-16T00:11:52.547Z,9.90
2018-06-16T00:14:27.396Z,9.83
2018-06-16T00:17:02.144Z,8.97
2018-06-16T00:19:38.111Z,9.57
2018-06-16T00:22:07.122Z,9.33
2018-06-16T00:24:41.993Z,9.30
2018-06-16T00:27:16.966Z,9.37
2018-06-16T00:29:51.810Z,9.73
2018-06-16T00:32:26.976Z,9.63
2018-06-16T00:35:01.772Z,9.77
2018-06-16T00:37:36.542Z,9.10
2018-06-16T00:40:11.512Z,9.80
2018-06-16T00:42:46.487Z,8.43
2018-06-16T00:45:21.487Z,9.00
2018-06-16T00:47:56.427Z,8.40
2018-06-16T00:50:31.556Z,8.60
2018-06-16T00:53:06.410Z,8.10
2018-06-16T00:55:41.356Z,9.37
2018-06-16T00:58:16.673Z,9.17
2018-06-16T01:00:51.919Z,8.80
2018-06-16T01:03:26.753Z,9.30
2018-06-16T01:06:01.771Z,9.10
2018-06-16T01:08:36.703Z,8.50
2018-06-16T01:11:11.479Z,8.77
2018-06-16T01:13:46.224Z,9.27
2018-06-16T01:16:21.269Z,8.17
2018-06-16T01:18:56.444Z,9.27
2018-06-16T01:21:31.296Z,8.90
2018-06-16T01:24:06.206Z,8.00
2018-06-16T01:26:41.347Z,8.30
2018-06-16T01:29:16.318Z,8.83
2018-06-16T01:31:51.099Z,9.10
2018-06-16T01:34:26.015Z,8.43
2018-06-16T01:37:00.913Z,8.63
2018-06-16T01:39:35.579Z,8.00
2018-06-16T01:42:10.479Z,8.77
2018-06-16T01:44:45.434Z,9.20
2018-06-16T01:47:20.201Z,8.47
2018-06-16T01:49:55.176Z,9.27
2018-06-16T01:52:29.847Z,9.40
2018-06-16T01:55:04.382Z,8.80
2018-06-16T01:57:39.280Z,9.03
2018-06-16T02:00:13.966Z,8.57
2018-06-16T02:02:48.867Z,8.93
2018-06-16T02:05:23.769Z,8.57
2018-06-16T02:07:58.704Z,9.93
2018-06-16T02:10:33.554Z,9.73
2018-06-16T02:13:08.491Z,9.30
2018-06-16T02:15:43.399Z,8.80
2018-06-16T02:18:18.330Z,8.87
2018-06-16T02:20:53.283Z,8.90
2018-06-16T02:23:28.203Z,8.40
2018-06-16T02:26:03.020Z,9.03
2018-06-16T02:28:37.741Z,8.77
2018-06-16T02:31:12.675Z,8.70
2018-06-16T02:33:47.433Z,9.13
2018-06-16T02:36:22.549Z,8.93
2018-06-16T02:38:57.683Z,9.07
2018-06-16T02:41:32.309Z,9.50
2018-06-16T02:44:07.049Z,9.33
2018-06-16T02:46:41.858Z,9.00
2018-06-16T02:49:16.947Z,8.63
2018-06-16T02:51:51.833Z,8.67
2018-06-16T02:54:26.708Z,8.63
2018-06-16T02:57:01.553Z,8.43
2018-06-16T02:59:36.369Z,8.37
2018-06-16T03:02:11.422Z,8.30
2018-06-16T03:04:46.261Z,8.63
2018-06-16T03:07:21.182Z,8.60
2018-06-16T03:09:56.268Z,8.10
2018-06-16T03:12:31.124Z,8.47
2018-06-16T03:15:06.419Z,8.23
2018-06-16T03:17:41.644Z,8.90
2018-06-16T03:20:16.589Z,9.10
2018-06-16T03:22:51.515Z,9.20
2018-06-16T03:25:26.220Z,8.90
2018-06-16T03:28:01.331Z,9.30
2018-06-16T03:30:36.168Z,8.97
2018-06-16T03:33:11.137Z,9.27
2018-06-16T03:35:46.143Z,8.13
2018-06-16T03:38:20.937Z,9.60
2018-06-16T03:40:55.844Z,9.43
2018-06-16T03:43:30.718Z,9.47
2018-06-16T03:46:05.762Z,8.93
2018-06-16T03:48:40.546Z,8.50
2018-06-16T03:51:15.446Z,8.80
2018-06-16T03:53:50.528Z,9.10
2018-06-16T03:56:25.510Z,8.90
2018-06-16T03:59:00.690Z,8.60
2018-06-16T04:01:35.647Z,9.50
2018-06-16T04:04:10.319Z,8.90
2018-06-16T04:06:45.292Z,9.70
2018-06-16T04:09:20.278Z,9.57
2018-06-16T04:11:55.365Z,10.80
2018-06-16T04:14:30.689Z,10.20
2018-06-16T04:17:10.385Z,10.30
2018-06-16T04:19:45.448Z,9.67
2018-06-16T04:22:21.118Z,9.97
2018-06-16T04:24:55.960Z,9.93
2018-06-16T04:27:30.966Z,10.50
2018-06-16T04:30:06.055Z,11.47
2018-06-16T04:32:40.984Z,10.27
2018-06-16T04:35:15.879Z,9.30
2018-06-16T04:37:50.699Z,9.70
2018-06-16T04:40:26.210Z,9.33
2018-06-16T04:43:01.471Z,10.07
2018-06-16T04:45:37.460Z,9.27
2018-06-16T04:48:13.164Z,9.17
2018-06-16T04:50:48.344Z,9.57
2018-06-16T04:53:23.959Z,11.40
2018-06-16T04:55:58.791Z,10.30
2018-06-16T04:58:33.647Z,10.40
2018-06-16T05:01:08.527Z,10.87
2018-06-16T05:03:43.597Z,13.20
2018-06-16T05:06:18.473Z,11.43
2018-06-16T05:08:53.404Z,11.90
2018-06-16T05:11:28.622Z,12.80
2018-06-16T05:14:03.740Z,11.83
2018-06-16T05:16:38.959Z,11.40
2018-06-16T05:19:13.916Z,12.33
2018-06-16T05:21:48.573Z,11.93
2018-06-16T05:24:24.044Z,12.43
2018-06-16T05:26:58.968Z,12.70
2018-06-16T05:29:34.188Z,14.17
2018-06-16T05:32:09.437Z,14.20
2018-06-16T05:34:44.572Z,13.43
2018-06-16T05:37:19.484Z,11.83
2018-06-16T05:39:55.094Z,13.00
2018-06-16T05:42:29.976Z,13.60
2018-06-16T05:45:05.346Z,12.27
2018-06-16T05:47:40.530Z,13.20
2018-06-16T05:50:21.938Z,13.70
2018-06-16T05:52:57.145Z,13.50
2018-06-16T05:55:32.717Z,11.90
2018-06-16T05:58:08.121Z,14.53
2018-06-16T06:00:43.373Z,14.40
2018-06-16T06:03:18.769Z,15.73
2018-06-16T06:05:53.821Z,14.07
2018-06-16T06:08:29.657Z,14.47
2018-06-16T06:11:05.046Z,15.20
2018-06-16T06:13:40.206Z,18.47
2018-06-16T06:16:15.383Z,16.90
2018-06-16T06:18:51.067Z,16.70
2018-06-16T06:21:26.058Z,17.70
2018-06-16T06:24:01.264Z,19.10
2018-06-16T06:26:36.692Z,19.63
2018-06-16T06:29:11.421Z,18.57
2018-06-16T06:31:46.455Z,16.77
2018-06-16T06:34:21.843Z,17.70
2018-06-16T06:36:56.935Z,19.23
2018-06-16T06:39:31.969Z,18.67
2018-06-16T06:42:07.242Z,18.00
2018-06-16T06:44:44.222Z,18.60
2018-06-16T06:47:19.233Z,19.40
2018-06-16T06:49:54.854Z,20.30
2018-06-16T06:52:31.327Z,20.33
2018-06-16T06:55:06.603Z,20.40
2018-06-16T06:57:42.052Z,20.27
2018-06-16T07:00:17.471Z,20.83
2018-06-16T07:02:52.757Z,21.00
2018-06-16T07:05:28.670Z,19.33
2018-06-16T07:08:12.682Z,19.57
2018-06-16T07:10:48.253Z,21.00
2018-06-16T07:13:23.840Z,19.73
2018-06-16T07:16:00.411Z,19.77
2018-06-16T07:18:35.764Z,18.80
2018-06-16T07:21:11.148Z,20.63
2018-06-16T07:23:46.597Z,19.97
2018-06-16T07:26:23.125Z,19.83
2018-06-16T07:29:01.067Z,20.37
2018-06-16T07:31:37.091Z,17.87
2018-06-16T07:34:12.380Z,20.80
2018-06-16T07:36:47.739Z,19.27
2018-06-16T07:39:22.589Z,21.60
2018-06-16T07:41:57.737Z,20.93
2018-06-16T07:44:32.916Z,22.40
2018-06-16T07:47:07.896Z,21.03
2018-06-16T07:49:43.136Z,21.70
2018-06-16T07:52:18.317Z,19.70
2018-06-16T07:54:53.277Z,19.37
2018-06-16T07:57:28.357Z,21.63
2018-06-16T08:00:03.392Z,19.77
2018-06-16T08:02:38.976Z,19.20
2018-06-16T08:05:14.140Z,17.93
2018-06-16T08:07:49.210Z,19.07
2018-06-16T08:10:24.017Z,19.00
2018-06-16T08:12:58.797Z,18.33
2018-06-16T08:15:33.865Z,18.13
2018-06-16T08:18:08.980Z,17.33
2018-06-16T08:20:44.029Z,17.70
2018-06-16T08:23:19.080Z,16.90
2018-06-16T08:25:54.452Z,17.27
2018-06-16T08:28:29.736Z,17.30
2018-06-16T08:31:04.686Z,16.20
2018-06-16T08:33:39.661Z,18.53
2018-06-16T08:36:14.673Z,16.93
2018-06-16T08:38:49.874Z,17.00
2018-06-16T08:41:24.847Z,17.93
2018-06-16T08:44:00.169Z,18.93
2018-06-16T08:46:35.171Z,17.93
2018-06-16T08:49:10.136Z,18.20
2018-06-16T08:51:45.105Z,17.60
2018-06-16T08:54:20.350Z,19.20
2018-06-16T08:56:55.745Z,17.87
2018-06-16T08:59:30.785Z,14.87
2018-06-16T09:02:05.908Z,13.47
2018-06-16T09:04:40.831Z,13.97
2018-06-16T09:07:15.735Z,12.47
2018-06-16T09:09:51.248Z,14.60
2018-06-16T09:12:26.306Z,13.30
2018-06-16T09:15:01.452Z,13.37
2018-06-16T09:17:36.351Z,13.60
2018-06-16T09:20:11.598Z,13.50
2018-06-16T09:22:46.494Z,13.40
2018-06-16T09:25:21.682Z,12.67
2018-06-16T09:27:56.523Z,12.70
2018-06-16T09:30:31.919Z,12.93
2018-06-16T09:33:07.327Z,11.50
2018-06-16T09:35:42.264Z,9.53
2018-06-16T09:38:17.413Z,9.07
2018-06-16T09:40:52.270Z,7.87
2018-06-16T09:43:27.655Z,7.57
2018-06-16T09:46:02.611Z,7.40
2018-06-16T09:48:37.530Z,7.67
2018-06-16T09:51:12.580Z,7.33
2018-06-16T09:53:47.531Z,9.23
2018-06-16T09:56:22.688Z,8.80
2018-06-16T09:58:57.563Z,9.00
2018-06-16T10:01:32.967Z,9.27
2018-06-16T10:04:08.278Z,8.50
2018-06-16T10:06:43.555Z,8.00
2018-06-16T10:09:18.687Z,7.67
2018-06-16T10:11:53.958Z,7.37
2018-06-16T10:14:29.051Z,6.90
2018-06-16T10:17:03.911Z,6.83
2018-06-16T10:19:39.283Z,4.80
2018-06-16T10:22:14.039Z,4.30
2018-06-16T10:24:49.044Z,5.17
2018-06-16T10:27:24.459Z,5.00
2018-06-16T10:29:59.364Z,5.30
2018-06-16T10:32:34.259Z,5.23
2018-06-16T10:35:09.078Z,5.07
2018-06-16T10:37:43.623Z,5.10
2018-06-16T10:40:19.966Z,4.70
2018-06-16T10:42:54.942Z,4.50
2018-06-16T10:45:30.063Z,4.83
2018-06-16T10:48:05.170Z,5.17
2018-06-16T10:50:40.205Z,5.57
2018-06-16T10:53:15.382Z,5.27
2018-06-16T10:55:50.346Z,6.00
2018-06-16T10:58:25.404Z,5.43
2018-06-16T11:01:00.137Z,5.17
2018-06-16T11:03:35.156Z,5.10
2018-06-16T11:06:10.147Z,4.87
2018-06-16T11:08:44.990Z,5.03
2018-06-16T11:11:19.895Z,5.37
2018-06-16T11:13:55.227Z,5.20
2018-06-16T11:16:30.297Z,4.80
2018-06-16T11:19:05.995Z,4.80
2018-06-16T11:21:40.922Z,4.57
2018-06-16T11:24:15.908Z,4.50
2018-06-16T11:26:52.099Z,4.20
2018-06-16T11:29:27.250Z,3.90
2018-06-16T11:32:02.327Z,4.23
2018-06-16T11:34:37.570Z,4.03
2018-06-16T11:37:12.575Z,3.80
2018-06-16T11:39:47.846Z,4.07
2018-06-16T11:42:22.714Z,3.40
2018-06-16T11:44:57.556Z,3.70
2018-06-16T11:47:33.055Z,4.10
2018-06-16T11:50:08.548Z,4.23
2018-06-16T11:52:43.526Z,3.37
2018-06-16T11:55:18.554Z,3.70
2018-06-16T11:57:53.511Z,4.40
2018-06-16T12:00:28.499Z,3.70
2018-06-16T12:03:03.377Z,3.60
2018-06-16T12:05:38.260Z,4.50
2018-06-16T12:08:13.548Z,5.77
2018-06-16T12:10:48.853Z,6.00
2018-06-16T12:13:30.494Z,6.97
2018-06-16T12:16:05.575Z,6.00
2018-06-16T12:18:40.564Z,6.30
2018-06-16T12:21:15.320Z,6.00
2018-06-16T12:23:50.530Z,5.93
2018-06-16T12:26:25.720Z,5.73
2018-06-16T12:29:00.813Z,6.37
2018-06-16T12:31:36.102Z,6.37
2018-06-16T12:34:10.612Z,5.67
2018-06-16T12:36:45.674Z,6.37
2018-06-16T12:39:21.055Z,5.83
2018-06-16T12:41:56.082Z,5.47
2018-06-16T12:44:31.043Z,6.43
2018-06-16T12:47:06.098Z,6.07
2018-06-16T12:49:41.132Z,6.53
2018-06-16T12:52:16.275Z,6.37
2018-06-16T12:54:51.399Z,6.20
2018-06-16T12:57:26.375Z,6.40
2018-06-16T13:00:01.668Z,6.10
2018-06-16T13:02:36.592Z,5.43
2018-06-16T13:05:12.249Z,6.40
2018-06-16T13:07:47.246Z,5.50
2018-06-16T13:10:22.296Z,6.10
2018-06-16T13:12:57.985Z,6.00
2018-06-16T13:15:33.108Z,6.37
2018-06-16T13:18:07.936Z,6.57
2018-06-16T13:20:42.602Z,7.63
2018-06-16T13:23:17.833Z,6.00
2018-06-16T13:25:52.733Z,5.87
2018-06-16T13:28:28.030Z,6.07
2018-06-16T13:31:02.966Z,6.20
2018-06-16T13:33:37.891Z,5.73
2018-06-16T13:36:13.339Z,6.10
2018-06-16T13:38:48.208Z,9.00
2018-06-16T13:41:23.882Z,7.27
2018-06-16T13:43:59.374Z,6.37
2018-06-16T13:46:34.537Z,6.03
2018-06-16T13:49:09.499Z,6.10
2018-06-16T13:51:44.101Z,5.43
2018-06-16T13:54:19.347Z,5.37
2018-06-16T13:56:54.439Z,5.17
2018-06-16T13:59:29.316Z,6.10
2018-06-16T14:02:04.196Z,5.53
2018-06-16T14:04:39.420Z,5.40
2018-06-16T14:07:14.194Z,5.03
2018-06-16T14:09:49.454Z,5.17
2018-06-16T14:12:24.529Z,5.70
2018-06-16T14:14:59.479Z,5.40
2018-06-16T14:17:34.596Z,4.40
2018-06-16T14:20:10.056Z,4.30
2018-06-16T14:22:45.234Z,5.27
2018-06-16T14:25:20.024Z,4.30
2018-06-16T14:27:55.400Z,3.80
2018-06-16T14:30:30.788Z,4.03
2018-06-16T14:33:05.963Z,4.50
2018-06-16T14:35:41.021Z,4.10
2018-06-16T14:38:16.134Z,4.40
2018-06-16T14:40:51.044Z,4.03
2018-06-16T14:43:26.104Z,3.83
2018-06-16T14:46:01.275Z,3.90
2018-06-16T14:48:36.168Z,3.87
2018-06-16T14:51:11.152Z,4.30
2018-06-16T14:53:46.305Z,4.50
2018-06-16T14:56:22.122Z,4.47
2018-06-16T14:58:57.160Z,4.37
2018-06-16T15:01:32.163Z,4.20
2018-06-16T15:04:07.024Z,4.63
2018-06-16T15:06:42.177Z,3.87
2018-06-16T15:09:17.193Z,4.40
2018-06-16T15:11:51.611Z,4.47
2018-06-16T15:14:26.786Z,4.67
2018-06-16T15:17:01.799Z,8.03
2018-06-16T15:19:37.014Z,4.80
2018-06-16T15:22:12.108Z,4.90
2018-06-16T15:24:47.075Z,4.60
2018-06-16T15:27:21.892Z,5.50
2018-06-16T15:29:57.375Z,4.80
2018-06-16T15:32:32.388Z,4.87
2018-06-16T15:35:07.176Z,5.57
2018-06-16T15:37:42.161Z,4.40
2018-06-16T15:40:17.139Z,5.00
2018-06-16T15:42:52.121Z,4.90
2018-06-16T15:45:27.822Z,5.00
2018-06-16T15:48:03.787Z,4.97
2018-06-16T15:50:38.773Z,5.20
2018-06-16T15:53:13.712Z,5.40
2018-06-16T15:55:48.476Z,5.93
2018-06-16T15:58:23.358Z,4.80
2018-06-16T16:00:58.349Z,4.93
2018-06-16T16:03:33.823Z,5.37
2018-06-16T16:06:08.493Z,5.60
2018-06-16T16:08:43.390Z,7.20
2018-06-16T16:11:18.216Z,7.60
2018-06-16T16:13:53.470Z,8.87
2018-06-16T16:16:28.369Z,11.70
2018-06-16T16:19:03.562Z,13.30
2018-06-16T16:21:39.510Z,15.07
2018-06-16T16:24:14.668Z,18.43
2018-06-16T16:26:50.062Z,16.43
2018-06-16T16:29:24.960Z,17.33
2018-06-16T16:32:00.099Z,20.47
2018-06-16T16:34:35.472Z,22.90
2018-06-16T16:37:10.477Z,18.30
2018-06-16T16:39:45.318Z,20.80
2018-06-16T16:42:20.043Z,22.10
2018-06-16T16:44:55.063Z,18.43
2018-06-16T16:47:30.053Z,17.93
2018-06-16T16:50:05.456Z,19.20
2018-06-16T16:52:40.237Z,17.20
2018-06-16T16:55:15.168Z,15.47
2018-06-16T16:57:49.765Z,16.70
2018-06-16T17:00:24.889Z,17.07
2018-06-16T17:02:59.880Z,14.60
2018-06-16T17:05:34.798Z,16.30
2018-06-16T17:08:09.774Z,16.90
2018-06-16T17:10:44.521Z,16.10
2018-06-16T17:13:19.461Z,16.73
2018-06-16T17:15:54.352Z,17.07
2018-06-16T17:18:29.403Z,17.03
2018-06-16T17:21:04.703Z,15.17
2018-06-16T17:23:41.128Z,15.20
2018-06-16T17:26:16.632Z,16.50
2018-06-16T17:28:51.604Z,14.83
2018-06-16T17:31:27.015Z,13.27
2018-06-16T17:34:02.035Z,12.67
2018-06-16T17:36:37.208Z,12.93
2018-06-16T17:39:15.122Z,13.23
2018-06-16T17:41:50.670Z,13.80
2018-06-16T17:44:26.334Z,14.10
2018-06-16T17:47:03.016Z,14.20
2018-06-16T17:49:38.392Z,14.33
2018-06-16T17:52:13.366Z,14.17
2018-06-16T17:54:48.953Z,15.27
2018-06-16T17:57:24.318Z,14.70
2018-06-16T18:00:00.670Z,14.70
2018-06-16T18:02:35.749Z,15.27
2018-06-16T18:05:12.134Z,12.80
2018-06-16T18:07:48.785Z,14.30
2018-06-16T18:10:24.458Z,13.93
2018-06-16T18:13:00.458Z,15.27
2018-06-16T18:15:36.710Z,13.87
2018-06-16T18:18:12.547Z,13.80
2018-06-16T18:20:47.891Z,13.93
2018-06-16T18:23:23.246Z,14.33
2018-06-16T18:25:58.014Z,13.17
2018-06-16T18:28:33.843Z,12.57
2018-06-16T18:31:09.064Z,12.60
2018-06-16T18:36:26.484Z,9.80
2018-06-16T18:39:02.098Z,8.73
2018-06-16T18:41:38.227Z,8.00
2018-06-16T18:44:14.061Z,7.77
2018-06-16T18:46:49.066Z,6.20
2018-06-16T18:49:24.564Z,7.93
2018-06-16T18:52:03.212Z,7.60
2018-06-16T18:54:39.922Z,6.47
2018-06-16T18:57:16.659Z,6.63
2018-06-16T18:59:52.037Z,6.00
2018-06-16T19:02:27.144Z,6.87
2018-06-16T19:05:02.965Z,6.17
2018-06-16T19:07:38.386Z,7.20
2018-06-16T19:10:23.898Z,7.00
2018-06-16T19:13:00.499Z,6.73
2018-06-16T19:15:36.059Z,7.07
2018-06-16T19:18:11.647Z,6.93
2018-06-16T19:20:47.386Z,7.37
2018-06-16T19:23:23.575Z,7.20
2018-06-16T19:25:59.471Z,6.60
2018-06-16T19:28:34.967Z,7.90
2018-06-16T19:31:10.056Z,7.73
2018-06-16T19:33:46.613Z,7.97
2018-06-16T19:36:23.650Z,9.60
2018-06-16T19:38:59.673Z,9.00
2018-06-16T19:41:37.835Z,9.13
2018-06-16T19:44:13.734Z,8.33
2018-06-16T19:46:48.625Z,9.80
2018-06-16T19:49:24.497Z,9.33
2018-06-16T19:52:00.577Z,10.40
2018-06-16T19:54:35.459Z,11.17
2018-06-16T19:57:11.236Z,11.37
2018-06-16T19:59:46.248Z,10.70
2018-06-16T20:02:21.659Z,11.07
2018-06-16T20:04:56.889Z,13.33
2018-06-16T20:07:32.262Z,11.40
2018-06-16T20:10:07.121Z,11.87
2018-06-16T20:12:42.136Z,11.73
2018-06-16T20:15:16.789Z,12.73
2018-06-16T20:17:51.720Z,12.10
2018-06-16T20:20:26.785Z,11.30
2018-06-16T20:23:02.025Z,12.20
2018-06-16T20:25:37.097Z,13.17
2018-06-16T20:28:12.106Z,13.27
2018-06-16T20:30:47.140Z,14.90
2018-06-16T20:33:22.696Z,14.13
2018-06-16T20:35:59.418Z,17.30
2018-06-16T20:38:34.536Z,17.63
2018-06-16T20:41:09.885Z,16.80
2018-06-16T20:43:45.179Z,18.20
2018-06-16T20:46:20.413Z,17.10
2018-06-16T20:48:55.434Z,17.90
2018-06-16T20:51:30.567Z,18.20
2018-06-16T20:54:05.677Z,17.80
2018-06-16T20:56:40.762Z,17.53
2018-06-16T20:59:16.028Z,17.73
2018-06-16T21:01:50.708Z,16.73
2018-06-16T21:04:25.693Z,17.97
2018-06-16T21:07:01.084Z,17.37
2018-06-16T21:09:35.936Z,18.10
2018-06-16T21:12:10.959Z,18.60
2018-06-16T21:14:46.005Z,19.90
2018-06-16T21:17:20.985Z,19.57
2018-06-16T21:19:55.874Z,18.10
2018-06-16T21:22:30.684Z,19.30
2018-06-16T21:25:05.972Z,18.90
2018-06-16T21:27:40.917Z,19.47
2018-06-16T21:30:16.113Z,19.70
2018-06-16T21:32:51.737Z,20.43
2018-06-16T21:35:27.302Z,18.23
2018-06-16T21:38:02.198Z,18.60
2018-06-16T21:40:37.520Z,18.20
2018-06-16T21:43:12.330Z,19.30
2018-06-16T21:45:47.428Z,19.50
2018-06-16T21:48:22.467Z,18.53
2018-06-16T21:50:57.757Z,18.27
2018-06-16T21:53:32.604Z,19.37
2018-06-16T21:56:07.583Z,17.70
2018-06-16T21:58:42.994Z,18.50
2018-06-16T22:01:17.765Z,17.87
2018-06-16T22:03:53.871Z,18.40
2018-06-16T22:06:29.145Z,18.10
2018-06-16T22:09:06.739Z,17.60
2018-06-16T22:11:41.869Z,16.77
2018-06-16T22:14:16.655Z,17.37
2018-06-16T22:16:51.905Z,18.40
2018-06-16T22:19:27.040Z,18.00
2018-06-16T22:22:01.907Z,19.57
2018-06-16T22:24:36.856Z,16.93
2018-06-16T22:27:11.860Z,18.10
2018-06-16T22:29:46.816Z,17.73
2018-06-16T22:32:22.407Z,18.17
2018-06-16T22:34:57.214Z,16.97
2018-06-16T22:37:32.247Z,17.13
2018-06-16T22:40:07.542Z,18.80
2018-06-16T22:42:42.593Z,18.50
2018-06-16T22:45:17.777Z,17.73
2018-06-16T22:47:52.571Z,17.93
2018-06-16T22:50:27.604Z,17.47
2018-06-16T22:53:02.628Z,17.30
2018-06-16T22:55:37.678Z,16.77
2018-06-16T22:58:12.868Z,17.10
2018-06-16T23:00:48.133Z,17.63
2018-06-16T23:03:23.085Z,16.97
2018-06-16T23:05:58.215Z,16.40
2018-06-16T23:08:33.368Z,16.30
2018-06-16T23:11:08.524Z,16.73
2018-06-16T23:13:43.546Z,16.77
2018-06-16T23:16:18.076Z,16.73
2018-06-16T23:18:53.474Z,16.00
2018-06-16T23:21:28.304Z,16.80
2018-06-16T23:24:03.487Z,16.60
2018-06-16T23:26:38.501Z,19.13
2018-06-16T23:29:13.268Z,17.27
2018-06-16T23:31:48.195Z,17.40
2018-06-16T23:34:22.933Z,17.03
2018-06-16T23:36:57.807Z,18.50
2018-06-16T23:39:32.608Z,15.53
2018-06-16T23:42:07.543Z,14.97
2018-06-16T23:44:42.562Z,15.27
2018-06-16T23:47:17.402Z,13.40
2018-06-16T23:49:52.646Z,11.60
2018-06-16T23:52:27.689Z,10.20
2018-06-16T23:55:02.464Z,10.90
2018-06-16T23:57:37.368Z,8.93
